sensor_id;sensor_type;location;lat;lon;timestamp;P1;durP1;ratioP1;P2;durP2;ratioP2
37221;SDS011;23119;51.842;-2.230;2023-02-28T00:01:28;2.17;;;0.40;;
37221;SDS011;23119;51.842;-2.230;2023-02-28T00:03:54;3.63;;;0.65;;
37221;SDS011;23119;51.842;-2.230;2023-02-28T00:06:20;4.75;;;0.43;;
37221;SDS011;23119;51.842;-2.230;2023-02-28T00:08:46;4.70;;;0.50;;
37221;SDS011;23119;51.842;-2.230;2023-02-28T00:11:13;1.75;;;0.50;;
37221;SDS011;23119;51.842;-2.230;2023-02-28T00:13:47;6.15;;;0.88;;
37221;SDS011;23119;51.842;-2.230;2023-02-28T00:16:19;2.00;;;0.60;;
37221;SDS011;23119;51.842;-2.230;2023-02-28T00:18:49;4.65;;;0.82;;
37221;SDS011;23119;51.842;-2.230;2023-02-28T00:21:17;7.97;;;1.17;;
37221;SDS011;23119;51.842;-2.230;2023-02-28T00:23:47;2.35;;;0.80;;
37221;SDS011;23119;51.842;-2.230;2023-02-28T00:26:15;2.55;;;0.70;;
37221;SDS011;23119;51.842;-2.230;2023-02-28T00:28:40;2.40;;;0.68;;
37221;SDS011;23119;51.842;-2.230;2023-02-28T00:31:06;5.00;;;0.50;;
37221;SDS011;23119;51.842;-2.230;2023-02-28T00:33:35;2.38;;;0.60;;
37221;SDS011;23119;51.842;-2.230;2023-02-28T00:36:01;4.13;;;0.43;;
37221;SDS011;23119;51.842;-2.230;2023-02-28T00:38:29;5.53;;;0.60;;
37221;SDS011;23119;51.842;-2.230;2023-02-28T00:40:59;2.90;;;0.80;;
37221;SDS011;23119;51.842;-2.230;2023-02-28T00:43:29;1.83;;;0.47;;
37221;SDS011;23119;51.842;-2.230;2023-02-28T00:45:56;3.33;;;0.70;;
37221;SDS011;23119;51.842;-2.230;2023-02-28T00:48:27;2.53;;;0.60;;
37221;SDS011;23119;51.842;-2.230;2023-02-28T00:50:53;7.07;;;0.75;;
37221;SDS011;23119;51.842;-2.230;2023-02-28T00:53:19;2.47;;;0.60;;
37221;SDS011;23119;51.842;-2.230;2023-02-28T00:55:45;1.60;;;0.70;;
37221;SDS011;23119;51.842;-2.230;2023-02-28T00:58:11;2.83;;;0.60;;
37221;SDS011;23119;51.842;-2.230;2023-02-28T01:00:37;4.72;;;0.65;;
37221;SDS011;23119;51.842;-2.230;2023-02-28T01:03:02;4.32;;;0.65;;
37221;SDS011;23119;51.842;-2.230;2023-02-28T01:05:28;5.55;;;0.77;;
37221;SDS011;23119;51.842;-2.230;2023-02-28T01:07:56;4.63;;;0.88;;
37221;SDS011;23119;51.842;-2.230;2023-02-28T01:10:22;5.68;;;0.90;;
37221;SDS011;23119;51.842;-2.230;2023-02-28T01:12:48;4.03;;;0.73;;
37221;SDS011;23119;51.842;-2.230;2023-02-28T01:15:16;4.75;;;0.90;;
37221;SDS011;23119;51.842;-2.230;2023-02-28T01:17:47;4.22;;;1.13;;
37221;SDS011;23119;51.842;-2.230;2023-02-28T01:20:13;1.98;;;0.68;;
37221;SDS011;23119;51.842;-2.230;2023-02-28T01:22:42;3.03;;;0.73;;
37221;SDS011;23119;51.842;-2.230;2023-02-28T01:25:13;2.88;;;0.60;;
37221;SDS011;23119;51.842;-2.230;2023-02-28T01:27:39;4.18;;;0.70;;
37221;SDS011;23119;51.842;-2.230;2023-02-28T01:30:07;3.30;;;0.70;;
37221;SDS011;23119;51.842;-2.230;2023-02-28T01:32:37;3.70;;;0.73;;
37221;SDS011;23119;51.842;-2.230;2023-02-28T01:35:03;2.58;;;0.93;;
37221;SDS011;23119;51.842;-2.230;2023-02-28T01:37:29;6.15;;;0.93;;
37221;SDS011;23119;51.842;-2.230;2023-02-28T01:39:55;5.72;;;1.02;;
37221;SDS011;23119;51.842;-2.230;2023-02-28T01:42:20;3.20;;;0.70;;
37221;SDS011;23119;51.842;-2.230;2023-02-28T01:45:03;3.45;;;1.17;;
37221;SDS011;23119;51.842;-2.230;2023-02-28T01:47:50;6.60;;;0.90;;
37221;SDS011;23119;51.842;-2.230;2023-02-28T01:50:22;2.75;;;0.80;;
37221;SDS011;23119;51.842;-2.230;2023-02-28T01:52:50;3.28;;;0.88;;
37221;SDS011;23119;51.842;-2.230;2023-02-28T01:55:19;3.15;;;1.00;;
37221;SDS011;23119;51.842;-2.230;2023-02-28T01:57:48;1.83;;;0.98;;
37221;SDS011;23119;51.842;-2.230;2023-02-28T02:00:23;3.50;;;0.77;;
37221;SDS011;23119;51.842;-2.230;2023-02-28T02:02:53;2.38;;;0.80;;
37221;SDS011;23119;51.842;-2.230;2023-02-28T02:05:26;3.05;;;1.20;;
37221;SDS011;23119;51.842;-2.230;2023-02-28T02:07:56;3.00;;;1.15;;
37221;SDS011;23119;51.842;-2.230;2023-02-28T02:16:07;2.70;;;1.13;;
37221;SDS011;23119;51.842;-2.230;2023-02-28T02:21:26;3.28;;;1.55;;
37221;SDS011;23119;51.842;-2.230;2023-02-28T02:32:44;3.08;;;1.42;;
37221;SDS011;23119;51.842;-2.230;2023-02-28T02:35:16;2.75;;;1.38;;
37221;SDS011;23119;51.842;-2.230;2023-02-28T02:40:36;4.70;;;1.92;;
37221;SDS011;23119;51.842;-2.230;2023-02-28T02:43:14;3.75;;;1.67;;
37221;SDS011;23119;51.842;-2.230;2023-02-28T02:45:45;8.27;;;2.25;;
37221;SDS011;23119;51.842;-2.230;2023-02-28T02:48:21;4.93;;;2.20;;
37221;SDS011;23119;51.842;-2.230;2023-02-28T02:50:57;2.80;;;1.60;;
37221;SDS011;23119;51.842;-2.230;2023-02-28T02:53:37;3.22;;;1.65;;
37221;SDS011;23119;51.842;-2.230;2023-02-28T02:56:18;6.70;;;1.70;;
37221;SDS011;23119;51.842;-2.230;2023-02-28T02:58:46;4.93;;;1.70;;
37221;SDS011;23119;51.842;-2.230;2023-02-28T03:01:16;4.55;;;2.40;;
37221;SDS011;23119;51.842;-2.230;2023-02-28T03:06:26;5.60;;;2.63;;
37221;SDS011;23119;51.842;-2.230;2023-02-28T03:08:54;3.58;;;2.28;;
37221;SDS011;23119;51.842;-2.230;2023-02-28T03:11:20;4.95;;;1.80;;
37221;SDS011;23119;51.842;-2.230;2023-02-28T03:14:08;4.60;;;2.60;;
37221;SDS011;23119;51.842;-2.230;2023-02-28T03:28:00;5.35;;;2.17;;
37221;SDS011;23119;51.842;-2.230;2023-02-28T03:30:45;5.60;;;2.63;;
37221;SDS011;23119;51.842;-2.230;2023-02-28T03:33:33;7.68;;;2.60;;
37221;SDS011;23119;51.842;-2.230;2023-02-28T03:36:06;6.97;;;2.55;;
37221;SDS011;23119;51.842;-2.230;2023-02-28T03:38:47;6.00;;;2.97;;
37221;SDS011;23119;51.842;-2.230;2023-02-28T03:41:32;6.47;;;2.60;;
37221;SDS011;23119;51.842;-2.230;2023-02-28T03:49:57;11.18;;;2.92;;
37221;SDS011;23119;51.842;-2.230;2023-02-28T03:52:31;9.50;;;3.10;;
37221;SDS011;23119;51.842;-2.230;2023-02-28T03:55:02;5.32;;;2.63;;
37221;SDS011;23119;51.842;-2.230;2023-02-28T03:57:39;6.25;;;2.80;;
37221;SDS011;23119;51.842;-2.230;2023-02-28T04:00:19;4.13;;;2.75;;
37221;SDS011;23119;51.842;-2.230;2023-02-28T04:02:53;4.88;;;2.40;;
37221;SDS011;23119;51.842;-2.230;2023-02-28T04:05:20;6.22;;;3.47;;
37221;SDS011;23119;51.842;-2.230;2023-02-28T04:07:46;5.88;;;2.83;;
37221;SDS011;23119;51.842;-2.230;2023-02-28T04:10:16;4.57;;;3.10;;
37221;SDS011;23119;51.842;-2.230;2023-02-28T04:12:42;8.60;;;3.38;;
37221;SDS011;23119;51.842;-2.230;2023-02-28T04:15:10;5.22;;;3.25;;
37221;SDS011;23119;51.842;-2.230;2023-02-28T04:17:40;7.40;;;4.40;;
37221;SDS011;23119;51.842;-2.230;2023-02-28T04:20:09;8.25;;;4.38;;
37221;SDS011;23119;51.842;-2.230;2023-02-28T04:22:37;6.90;;;4.85;;
37221;SDS011;23119;51.842;-2.230;2023-02-28T04:25:06;8.05;;;4.07;;
37221;SDS011;23119;51.842;-2.230;2023-02-28T04:27:34;8.07;;;4.05;;
37221;SDS011;23119;51.842;-2.230;2023-02-28T04:30:03;11.65;;;4.25;;
37221;SDS011;23119;51.842;-2.230;2023-02-28T04:32:29;7.68;;;4.65;;
37221;SDS011;23119;51.842;-2.230;2023-02-28T04:34:54;7.63;;;5.07;;
37221;SDS011;23119;51.842;-2.230;2023-02-28T04:37:20;7.18;;;4.68;;
37221;SDS011;23119;51.842;-2.230;2023-02-28T04:39:52;10.50;;;5.40;;
37221;SDS011;23119;51.842;-2.230;2023-02-28T04:42:18;7.68;;;4.40;;
37221;SDS011;23119;51.842;-2.230;2023-02-28T04:44:44;8.38;;;4.03;;
37221;SDS011;23119;51.842;-2.230;2023-02-28T04:47:12;6.57;;;3.97;;
37221;SDS011;23119;51.842;-2.230;2023-02-28T04:49:38;8.65;;;5.30;;
37221;SDS011;23119;51.842;-2.230;2023-02-28T04:52:06;11.80;;;6.80;;
37221;SDS011;23119;51.842;-2.230;2023-02-28T04:54:32;8.48;;;5.68;;
37221;SDS011;23119;51.842;-2.230;2023-02-28T04:57:01;9.07;;;6.32;;
37221;SDS011;23119;51.842;-2.230;2023-02-28T04:59:29;12.65;;;8.00;;
37221;SDS011;23119;51.842;-2.230;2023-02-28T05:01:57;15.15;;;8.82;;
37221;SDS011;23119;51.842;-2.230;2023-02-28T05:04:23;16.08;;;8.73;;
37221;SDS011;23119;51.842;-2.230;2023-02-28T05:06:49;17.63;;;9.93;;
37221;SDS011;23119;51.842;-2.230;2023-02-28T05:09:22;15.43;;;9.88;;
37221;SDS011;23119;51.842;-2.230;2023-02-28T05:11:50;16.15;;;10.75;;
37221;SDS011;23119;51.842;-2.230;2023-02-28T05:14:15;16.33;;;11.18;;
37221;SDS011;23119;51.842;-2.230;2023-02-28T05:16:42;17.25;;;11.60;;
37221;SDS011;23119;51.842;-2.230;2023-02-28T05:19:10;15.10;;;10.73;;
37221;SDS011;23119;51.842;-2.230;2023-02-28T05:21:37;14.15;;;9.32;;
37221;SDS011;23119;51.842;-2.230;2023-02-28T05:24:14;14.30;;;9.38;;
37221;SDS011;23119;51.842;-2.230;2023-02-28T05:26:48;16.67;;;9.90;;
37221;SDS011;23119;51.842;-2.230;2023-02-28T05:29:15;15.13;;;10.40;;
37221;SDS011;23119;51.842;-2.230;2023-02-28T05:31:41;14.88;;;9.55;;
37221;SDS011;23119;51.842;-2.230;2023-02-28T05:34:07;15.43;;;8.82;;
37221;SDS011;23119;51.842;-2.230;2023-02-28T05:36:33;13.48;;;8.93;;
37221;SDS011;23119;51.842;-2.230;2023-02-28T05:38:59;14.27;;;8.23;;
37221;SDS011;23119;51.842;-2.230;2023-02-28T05:41:24;14.77;;;9.85;;
37221;SDS011;23119;51.842;-2.230;2023-02-28T05:43:51;14.82;;;8.98;;
37221;SDS011;23119;51.842;-2.230;2023-02-28T05:46:16;15.73;;;9.18;;
37221;SDS011;23119;51.842;-2.230;2023-02-28T05:48:42;15.10;;;9.02;;
37221;SDS011;23119;51.842;-2.230;2023-02-28T05:51:12;18.20;;;8.98;;
37221;SDS011;23119;51.842;-2.230;2023-02-28T05:53:37;15.45;;;8.52;;
37221;SDS011;23119;51.842;-2.230;2023-02-28T05:56:06;20.35;;;8.65;;
37221;SDS011;23119;51.842;-2.230;2023-02-28T05:58:32;18.50;;;8.45;;
37221;SDS011;23119;51.842;-2.230;2023-02-28T06:01:18;15.38;;;9.15;;
37221;SDS011;23119;51.842;-2.230;2023-02-28T06:03:49;20.33;;;8.82;;
37221;SDS011;23119;51.842;-2.230;2023-02-28T06:06:15;16.13;;;8.90;;
37221;SDS011;23119;51.842;-2.230;2023-02-28T06:08:48;16.77;;;8.18;;
37221;SDS011;23119;51.842;-2.230;2023-02-28T06:11:14;13.85;;;8.80;;
37221;SDS011;23119;51.842;-2.230;2023-02-28T06:13:43;16.23;;;9.43;;
37221;SDS011;23119;51.842;-2.230;2023-02-28T06:16:10;16.02;;;8.90;;
37221;SDS011;23119;51.842;-2.230;2023-02-28T06:18:35;13.68;;;8.10;;
37221;SDS011;23119;51.842;-2.230;2023-02-28T06:21:04;15.40;;;8.63;;
37221;SDS011;23119;51.842;-2.230;2023-02-28T06:23:33;16.05;;;7.78;;
37221;SDS011;23119;51.842;-2.230;2023-02-28T06:25:59;15.02;;;7.65;;
37221;SDS011;23119;51.842;-2.230;2023-02-28T06:28:27;13.43;;;9.15;;
37221;SDS011;23119;51.842;-2.230;2023-02-28T06:30:56;14.30;;;8.32;;
37221;SDS011;23119;51.842;-2.230;2023-02-28T06:33:22;13.73;;;8.38;;
37221;SDS011;23119;51.842;-2.230;2023-02-28T06:35:50;16.20;;;8.57;;
37221;SDS011;23119;51.842;-2.230;2023-02-28T06:38:16;15.23;;;8.32;;
37221;SDS011;23119;51.842;-2.230;2023-02-28T06:40:43;15.73;;;7.88;;
37221;SDS011;23119;51.842;-2.230;2023-02-28T06:43:09;17.58;;;9.65;;
37221;SDS011;23119;51.842;-2.230;2023-02-28T06:45:41;17.27;;;9.27;;
37221;SDS011;23119;51.842;-2.230;2023-02-28T06:48:08;18.17;;;8.13;;
37221;SDS011;23119;51.842;-2.230;2023-02-28T06:50:35;16.85;;;9.43;;
37221;SDS011;23119;51.842;-2.230;2023-02-28T06:53:01;16.17;;;10.38;;
37221;SDS011;23119;51.842;-2.230;2023-02-28T06:55:27;18.08;;;8.85;;
37221;SDS011;23119;51.842;-2.230;2023-02-28T06:57:53;14.95;;;8.98;;
37221;SDS011;23119;51.842;-2.230;2023-02-28T07:00:22;16.40;;;7.82;;
37221;SDS011;23119;51.842;-2.230;2023-02-28T07:02:49;19.02;;;10.73;;
37221;SDS011;23119;51.842;-2.230;2023-02-28T07:05:17;20.67;;;10.82;;
37221;SDS011;23119;51.842;-2.230;2023-02-28T07:07:46;17.40;;;8.97;;
37221;SDS011;23119;51.842;-2.230;2023-02-28T07:10:14;22.63;;;11.85;;
37221;SDS011;23119;51.842;-2.230;2023-02-28T07:12:41;17.38;;;9.43;;
37221;SDS011;23119;51.842;-2.230;2023-02-28T07:15:08;18.75;;;9.75;;
37221;SDS011;23119;51.842;-2.230;2023-02-28T07:17:39;20.77;;;10.88;;
37221;SDS011;23119;51.842;-2.230;2023-02-28T07:20:05;22.83;;;12.05;;
37221;SDS011;23119;51.842;-2.230;2023-02-28T07:22:35;24.40;;;11.82;;
37221;SDS011;23119;51.842;-2.230;2023-02-28T07:25:01;22.65;;;11.75;;
37221;SDS011;23119;51.842;-2.230;2023-02-28T07:27:30;22.95;;;11.85;;
37221;SDS011;23119;51.842;-2.230;2023-02-28T07:29:58;24.00;;;12.45;;
37221;SDS011;23119;51.842;-2.230;2023-02-28T07:32:31;29.45;;;13.63;;
37221;SDS011;23119;51.842;-2.230;2023-02-28T07:34:56;29.45;;;13.90;;
37221;SDS011;23119;51.842;-2.230;2023-02-28T07:37:34;32.78;;;14.35;;
37221;SDS011;23119;51.842;-2.230;2023-02-28T07:40:06;31.45;;;14.30;;
37221;SDS011;23119;51.842;-2.230;2023-02-28T07:42:37;29.45;;;13.65;;
37221;SDS011;23119;51.842;-2.230;2023-02-28T07:45:04;28.65;;;12.98;;
37221;SDS011;23119;51.842;-2.230;2023-02-28T07:47:33;31.45;;;14.68;;
37221;SDS011;23119;51.842;-2.230;2023-02-28T07:49:59;34.60;;;14.10;;
37221;SDS011;23119;51.842;-2.230;2023-02-28T07:52:25;32.55;;;14.27;;
37221;SDS011;23119;51.842;-2.230;2023-02-28T07:54:53;32.67;;;13.25;;
37221;SDS011;23119;51.842;-2.230;2023-02-28T07:57:21;31.95;;;14.55;;
37221;SDS011;23119;51.842;-2.230;2023-02-28T07:59:51;37.25;;;14.57;;
37221;SDS011;23119;51.842;-2.230;2023-02-28T08:02:19;36.67;;;16.25;;
37221;SDS011;23119;51.842;-2.230;2023-02-28T08:04:47;35.03;;;14.93;;
37221;SDS011;23119;51.842;-2.230;2023-02-28T08:07:16;35.22;;;14.20;;
37221;SDS011;23119;51.842;-2.230;2023-02-28T08:09:48;34.88;;;13.85;;
37221;SDS011;23119;51.842;-2.230;2023-02-28T08:12:14;37.65;;;14.32;;
37221;SDS011;23119;51.842;-2.230;2023-02-28T08:14:42;39.53;;;14.85;;
37221;SDS011;23119;51.842;-2.230;2023-02-28T08:17:09;39.97;;;15.38;;
37221;SDS011;23119;51.842;-2.230;2023-02-28T08:19:41;37.17;;;14.68;;
37221;SDS011;23119;51.842;-2.230;2023-02-28T08:22:09;36.28;;;14.93;;
37221;SDS011;23119;51.842;-2.230;2023-02-28T08:24:35;34.67;;;13.95;;
37221;SDS011;23119;51.842;-2.230;2023-02-28T08:27:01;34.65;;;13.88;;
37221;SDS011;23119;51.842;-2.230;2023-02-28T08:29:29;37.60;;;13.85;;
37221;SDS011;23119;51.842;-2.230;2023-02-28T08:31:58;36.03;;;13.93;;
37221;SDS011;23119;51.842;-2.230;2023-02-28T08:34:24;40.75;;;13.82;;
37221;SDS011;23119;51.842;-2.230;2023-02-28T08:36:52;33.28;;;12.70;;
37221;SDS011;23119;51.842;-2.230;2023-02-28T08:39:21;34.08;;;13.18;;
37221;SDS011;23119;51.842;-2.230;2023-02-28T08:41:49;31.75;;;13.30;;
37221;SDS011;23119;51.842;-2.230;2023-02-28T08:44:15;32.17;;;12.82;;
37221;SDS011;23119;51.842;-2.230;2023-02-28T08:46:45;30.48;;;11.95;;
37221;SDS011;23119;51.842;-2.230;2023-02-28T08:49:16;34.78;;;13.32;;
37221;SDS011;23119;51.842;-2.230;2023-02-28T08:51:47;33.30;;;12.73;;
37221;SDS011;23119;51.842;-2.230;2023-02-28T08:54:15;32.08;;;13.60;;
37221;SDS011;23119;51.842;-2.230;2023-02-28T08:59:16;26.23;;;11.43;;
37221;SDS011;23119;51.842;-2.230;2023-02-28T09:01:44;25.75;;;12.20;;
37221;SDS011;23119;51.842;-2.230;2023-02-28T09:04:15;29.60;;;11.23;;
37221;SDS011;23119;51.842;-2.230;2023-02-28T09:06:40;28.92;;;12.13;;
37221;SDS011;23119;51.842;-2.230;2023-02-28T09:09:06;24.17;;;10.70;;
37221;SDS011;23119;51.842;-2.230;2023-02-28T09:11:37;28.13;;;10.50;;
37221;SDS011;23119;51.842;-2.230;2023-02-28T09:14:08;28.95;;;11.02;;
37221;SDS011;23119;51.842;-2.230;2023-02-28T09:16:34;26.42;;;11.20;;
37221;SDS011;23119;51.842;-2.230;2023-02-28T09:19:03;23.92;;;10.32;;
37221;SDS011;23119;51.842;-2.230;2023-02-28T09:21:29;26.45;;;10.90;;
37221;SDS011;23119;51.842;-2.230;2023-02-28T09:24:15;30.67;;;11.65;;
37221;SDS011;23119;51.842;-2.230;2023-02-28T09:26:44;24.65;;;10.52;;
37221;SDS011;23119;51.842;-2.230;2023-02-28T09:29:10;24.13;;;11.07;;
37221;SDS011;23119;51.842;-2.230;2023-02-28T09:31:36;22.42;;;9.77;;
37221;SDS011;23119;51.842;-2.230;2023-02-28T09:34:05;24.20;;;10.80;;
37221;SDS011;23119;51.842;-2.230;2023-02-28T09:36:33;24.00;;;10.38;;
37221;SDS011;23119;51.842;-2.230;2023-02-28T09:39:11;20.20;;;9.68;;
37221;SDS011;23119;51.842;-2.230;2023-02-28T09:41:44;23.42;;;9.70;;
37221;SDS011;23119;51.842;-2.230;2023-02-28T09:44:17;26.20;;;10.15;;
37221;SDS011;23119;51.842;-2.230;2023-02-28T09:47:25;23.02;;;10.82;;
37221;SDS011;23119;51.842;-2.230;2023-02-28T09:49:58;24.30;;;10.55;;
37221;SDS011;23119;51.842;-2.230;2023-02-28T09:52:42;26.55;;;10.75;;
37221;SDS011;23119;51.842;-2.230;2023-02-28T09:55:22;25.63;;;11.00;;
37221;SDS011;23119;51.842;-2.230;2023-02-28T09:58:20;23.73;;;11.00;;
37221;SDS011;23119;51.842;-2.230;2023-02-28T10:00:59;21.02;;;10.40;;
37221;SDS011;23119;51.842;-2.230;2023-02-28T10:03:55;21.85;;;8.93;;
37221;SDS011;23119;51.842;-2.230;2023-02-28T10:06:29;18.20;;;9.00;;
37221;SDS011;23119;51.842;-2.230;2023-02-28T10:09:07;19.63;;;9.70;;
37221;SDS011;23119;51.842;-2.230;2023-02-28T10:11:40;20.42;;;9.32;;
37221;SDS011;23119;51.842;-2.230;2023-02-28T10:17:00;17.65;;;8.30;;
37221;SDS011;23119;51.842;-2.230;2023-02-28T10:19:42;17.67;;;8.45;;
37221;SDS011;23119;51.842;-2.230;2023-02-28T10:22:17;17.20;;;8.50;;
37221;SDS011;23119;51.842;-2.230;2023-02-28T10:24:51;14.55;;;8.05;;
37221;SDS011;23119;51.842;-2.230;2023-02-28T10:27:38;14.00;;;7.15;;
37221;SDS011;23119;51.842;-2.230;2023-02-28T10:30:05;16.20;;;7.38;;
37221;SDS011;23119;51.842;-2.230;2023-02-28T10:32:41;16.23;;;7.88;;
37221;SDS011;23119;51.842;-2.230;2023-02-28T10:35:27;14.80;;;7.20;;
37221;SDS011;23119;51.842;-2.230;2023-02-28T10:37:54;14.85;;;7.57;;
37221;SDS011;23119;51.842;-2.230;2023-02-28T10:42:56;14.77;;;6.63;;
37221;SDS011;23119;51.842;-2.230;2023-02-28T10:45:26;11.20;;;5.32;;
37221;SDS011;23119;51.842;-2.230;2023-02-28T10:48:04;11.85;;;6.25;;
37221;SDS011;23119;51.842;-2.230;2023-02-28T10:50:52;11.43;;;5.63;;
37221;SDS011;23119;51.842;-2.230;2023-02-28T10:56:01;11.30;;;5.53;;
37221;SDS011;23119;51.842;-2.230;2023-02-28T11:01:50;11.52;;;5.72;;
37221;SDS011;23119;51.842;-2.230;2023-02-28T11:07:11;9.80;;;4.30;;
37221;SDS011;23119;51.842;-2.230;2023-02-28T11:09:49;9.13;;;4.50;;
37221;SDS011;23119;51.842;-2.230;2023-02-28T11:12:37;7.82;;;3.47;;
37221;SDS011;23119;51.842;-2.230;2023-02-28T11:20:57;7.00;;;4.25;;
37221;SDS011;23119;51.842;-2.230;2023-02-28T11:23:28;8.70;;;4.00;;
37221;SDS011;23119;51.842;-2.230;2023-02-28T11:26:04;9.75;;;4.53;;
37221;SDS011;23119;51.842;-2.230;2023-02-28T11:28:42;9.40;;;4.05;;
37221;SDS011;23119;51.842;-2.230;2023-02-28T11:31:17;9.60;;;4.50;;
37221;SDS011;23119;51.842;-2.230;2023-02-28T11:36:24;10.45;;;4.30;;
37221;SDS011;23119;51.842;-2.230;2023-02-28T11:39:07;8.77;;;4.47;;
37221;SDS011;23119;51.842;-2.230;2023-02-28T11:50:20;8.93;;;3.92;;
37221;SDS011;23119;51.842;-2.230;2023-02-28T11:53:21;7.40;;;3.70;;
37221;SDS011;23119;51.842;-2.230;2023-02-28T11:56:05;8.90;;;4.13;;
37221;SDS011;23119;51.842;-2.230;2023-02-28T12:01:38;7.75;;;4.25;;
37221;SDS011;23119;51.842;-2.230;2023-02-28T12:04:34;8.07;;;4.03;;
37221;SDS011;23119;51.842;-2.230;2023-02-28T12:07:16;12.75;;;4.90;;
37221;SDS011;23119;51.842;-2.230;2023-02-28T12:12:39;6.45;;;3.25;;
37221;SDS011;23119;51.842;-2.230;2023-02-28T12:15:28;6.85;;;3.80;;
37221;SDS011;23119;51.842;-2.230;2023-02-28T12:26:52;6.22;;;2.38;;
37221;SDS011;23119;51.842;-2.230;2023-02-28T12:29:23;6.72;;;2.97;;
37221;SDS011;23119;51.842;-2.230;2023-02-28T12:32:09;6.22;;;2.83;;
37221;SDS011;23119;51.842;-2.230;2023-02-28T12:34:46;7.72;;;3.42;;
37221;SDS011;23119;51.842;-2.230;2023-02-28T12:37:22;8.13;;;3.38;;
37221;SDS011;23119;51.842;-2.230;2023-02-28T12:40:00;7.15;;;2.88;;
37221;SDS011;23119;51.842;-2.230;2023-02-28T12:42:54;4.60;;;2.65;;
37221;SDS011;23119;51.842;-2.230;2023-02-28T12:45:28;6.68;;;3.22;;
37221;SDS011;23119;51.842;-2.230;2023-02-28T12:48:05;7.53;;;3.20;;
37221;SDS011;23119;51.842;-2.230;2023-02-28T12:50:33;7.03;;;2.83;;
37221;SDS011;23119;51.842;-2.230;2023-02-28T13:01:12;6.90;;;2.88;;
37221;SDS011;23119;51.842;-2.230;2023-02-28T13:09:36;2.78;;;1.30;;
37221;SDS011;23119;51.842;-2.230;2023-02-28T13:12:17;3.65;;;1.80;;
37221;SDS011;23119;51.842;-2.230;2023-02-28T13:14:42;3.03;;;1.05;;
37221;SDS011;23119;51.842;-2.230;2023-02-28T13:17:36;3.42;;;1.23;;
37221;SDS011;23119;51.842;-2.230;2023-02-28T13:20:17;2.75;;;1.23;;
37221;SDS011;23119;51.842;-2.230;2023-02-28T13:22:51;3.95;;;1.45;;
37221;SDS011;23119;51.842;-2.230;2023-02-28T13:27:51;4.20;;;1.33;;
37221;SDS011;23119;51.842;-2.230;2023-02-28T13:38:49;2.67;;;1.10;;
37221;SDS011;23119;51.842;-2.230;2023-02-28T13:44:05;2.67;;;1.30;;
37221;SDS011;23119;51.842;-2.230;2023-02-28T13:54:37;3.05;;;1.08;;
37221;SDS011;23119;51.842;-2.230;2023-02-28T14:05:30;2.55;;;1.30;;
37221;SDS011;23119;51.842;-2.230;2023-02-28T14:08:02;2.22;;;1.10;;
37221;SDS011;23119;51.842;-2.230;2023-02-28T14:10:35;2.08;;;0.88;;
37221;SDS011;23119;51.842;-2.230;2023-02-28T14:15:47;3.03;;;0.93;;
37221;SDS011;23119;51.842;-2.230;2023-02-28T14:18:27;3.28;;;1.25;;
37221;SDS011;23119;51.842;-2.230;2023-02-28T14:21:01;3.42;;;1.83;;
37221;SDS011;23119;51.842;-2.230;2023-02-28T14:23:40;4.55;;;1.58;;
37221;SDS011;23119;51.842;-2.230;2023-02-28T14:29:23;2.15;;;1.40;;
37221;SDS011;23119;51.842;-2.230;2023-02-28T14:32:10;4.45;;;1.83;;
37221;SDS011;23119;51.842;-2.230;2023-02-28T14:35:05;3.60;;;1.63;;
37221;SDS011;23119;51.842;-2.230;2023-02-28T14:37:50;2.58;;;1.10;;
37221;SDS011;23119;51.842;-2.230;2023-02-28T14:40:27;3.50;;;1.33;;
37221;SDS011;23119;51.842;-2.230;2023-02-28T14:43:03;3.85;;;1.38;;
37221;SDS011;23119;51.842;-2.230;2023-02-28T14:45:34;4.53;;;1.17;;
37221;SDS011;23119;51.842;-2.230;2023-02-28T14:50:30;2.70;;;1.67;;
37221;SDS011;23119;51.842;-2.230;2023-02-28T14:53:00;4.00;;;1.40;;
37221;SDS011;23119;51.842;-2.230;2023-02-28T14:55:30;2.95;;;1.10;;
37221;SDS011;23119;51.842;-2.230;2023-02-28T14:58:03;2.25;;;1.05;;
37221;SDS011;23119;51.842;-2.230;2023-02-28T15:00:35;1.75;;;0.98;;
37221;SDS011;23119;51.842;-2.230;2023-02-28T15:03:20;3.05;;;1.13;;
37221;SDS011;23119;51.842;-2.230;2023-02-28T15:05:56;2.38;;;1.00;;
37221;SDS011;23119;51.842;-2.230;2023-02-28T15:08:23;2.75;;;0.95;;
37221;SDS011;23119;51.842;-2.230;2023-02-28T15:16:24;3.22;;;1.33;;
37221;SDS011;23119;51.842;-2.230;2023-02-28T15:21:36;2.70;;;1.13;;
37221;SDS011;23119;51.842;-2.230;2023-02-28T15:26:38;2.28;;;1.23;;
37221;SDS011;23119;51.842;-2.230;2023-02-28T15:29:15;2.22;;;1.00;;
37221;SDS011;23119;51.842;-2.230;2023-02-28T15:32:06;3.88;;;1.05;;
37221;SDS011;23119;51.842;-2.230;2023-02-28T15:34:47;2.05;;;0.80;;
37221;SDS011;23119;51.842;-2.230;2023-02-28T15:37:38;2.25;;;0.65;;
37221;SDS011;23119;51.842;-2.230;2023-02-28T15:40:29;3.38;;;0.80;;
37221;SDS011;23119;51.842;-2.230;2023-02-28T15:43:18;2.22;;;0.80;;
37221;SDS011;23119;51.842;-2.230;2023-02-28T15:46:13;1.50;;;0.77;;
37221;SDS011;23119;51.842;-2.230;2023-02-28T15:48:53;2.30;;;0.60;;
37221;SDS011;23119;51.842;-2.230;2023-02-28T15:51:24;2.13;;;0.60;;
37221;SDS011;23119;51.842;-2.230;2023-02-28T15:54:08;1.23;;;0.70;;
37221;SDS011;23119;51.842;-2.230;2023-02-28T15:56:43;1.63;;;0.90;;
37221;SDS011;23119;51.842;-2.230;2023-02-28T15:59:15;2.35;;;0.90;;
37221;SDS011;23119;51.842;-2.230;2023-02-28T16:02:11;2.63;;;0.70;;
37221;SDS011;23119;51.842;-2.230;2023-02-28T16:07:58;2.30;;;0.80;;
37221;SDS011;23119;51.842;-2.230;2023-02-28T16:13:14;2.03;;;0.70;;
37221;SDS011;23119;51.842;-2.230;2023-02-28T16:15:42;1.95;;;0.60;;
37221;SDS011;23119;51.842;-2.230;2023-02-28T16:18:11;2.67;;;0.70;;
37221;SDS011;23119;51.842;-2.230;2023-02-28T16:20:40;1.88;;;1.25;;
37221;SDS011;23119;51.842;-2.230;2023-02-28T16:23:06;2.35;;;1.33;;
37221;SDS011;23119;51.842;-2.230;2023-02-28T16:25:37;4.30;;;2.17;;
37221;SDS011;23119;51.842;-2.230;2023-02-28T16:28:08;4.57;;;2.25;;
37221;SDS011;23119;51.842;-2.230;2023-02-28T16:30:45;3.10;;;1.83;;
37221;SDS011;23119;51.842;-2.230;2023-02-28T16:33:18;2.95;;;0.80;;
37221;SDS011;23119;51.842;-2.230;2023-02-28T16:35:47;2.97;;;1.00;;
37221;SDS011;23119;51.842;-2.230;2023-02-28T16:38:18;2.35;;;0.90;;
37221;SDS011;23119;51.842;-2.230;2023-02-28T16:40:44;7.65;;;1.70;;
37221;SDS011;23119;51.842;-2.230;2023-02-28T16:43:16;1.60;;;0.70;;
37221;SDS011;23119;51.842;-2.230;2023-02-28T16:45:46;3.47;;;1.98;;
37221;SDS011;23119;51.842;-2.230;2023-02-28T16:48:13;1.88;;;0.80;;
37221;SDS011;23119;51.842;-2.230;2023-02-28T16:50:43;1.83;;;0.70;;
37221;SDS011;23119;51.842;-2.230;2023-02-28T16:53:09;5.00;;;0.85;;
37221;SDS011;23119;51.842;-2.230;2023-02-28T16:55:38;1.50;;;0.70;;
37221;SDS011;23119;51.842;-2.230;2023-02-28T16:58:06;3.90;;;1.00;;
37221;SDS011;23119;51.842;-2.230;2023-02-28T17:00:39;2.30;;;0.75;;
37221;SDS011;23119;51.842;-2.230;2023-02-28T17:03:24;2.75;;;0.95;;
37221;SDS011;23119;51.842;-2.230;2023-02-28T17:05:57;2.15;;;0.90;;
37221;SDS011;23119;51.842;-2.230;2023-02-28T17:08:26;2.30;;;0.80;;
37221;SDS011;23119;51.842;-2.230;2023-02-28T17:10:53;3.83;;;0.90;;
37221;SDS011;23119;51.842;-2.230;2023-02-28T17:13:19;4.70;;;1.50;;
37221;SDS011;23119;51.842;-2.230;2023-02-28T17:15:45;2.20;;;1.00;;
37221;SDS011;23119;51.842;-2.230;2023-02-28T17:18:16;4.13;;;1.58;;
37221;SDS011;23119;51.842;-2.230;2023-02-28T17:20:46;2.60;;;1.10;;
37221;SDS011;23119;51.842;-2.230;2023-02-28T17:23:15;2.50;;;1.10;;
37221;SDS011;23119;51.842;-2.230;2023-02-28T17:25:41;4.00;;;1.70;;
37221;SDS011;23119;51.842;-2.230;2023-02-28T17:28:19;5.47;;;1.33;;
37221;SDS011;23119;51.842;-2.230;2023-02-28T17:30:48;7.53;;;3.55;;